createdAt,value
2019-03-23T00:02:16.117Z,26.33
2019-03-23T00:04:45.981Z,27.52
2019-03-23T00:07:15.992Z,27.73
2019-03-23T00:09:45.927Z,29.67
2019-03-23T00:12:15.825Z,26.35
2019-03-23T00:14:45.845Z,26.55
2019-03-23T00:17:15.733Z,26.65
2019-03-23T00:19:45.672Z,24.95
2019-03-23T00:22:15.582Z,26.02
2019-03-23T00:24:45.461Z,26.77
2019-03-23T00:27:15.391Z,29.23
2019-03-23T00:29:45.291Z,26.25
2019-03-23T00:32:15.218Z,27.55
2019-03-23T00:34:45.174Z,28.23
2019-03-23T00:37:15.103Z,29.87
2019-03-23T00:39:44.993Z,25.92
2019-03-23T00:42:14.933Z,26.85
2019-03-23T00:44:44.852Z,26.33
2019-03-23T00:47:14.766Z,26.37
2019-03-23T00:49:44.636Z,26.17
2019-03-23T00:52:14.595Z,29.25
2019-03-23T00:54:45.486Z,27.15
2019-03-23T00:57:15.379Z,29.57
2019-03-23T00:59:45.287Z,25.45
2019-03-23T01:02:15.178Z,28.57
2019-03-23T01:04:45.115Z,30.12
2019-03-23T01:07:14.977Z,28.05
2019-03-23T01:09:44.879Z,27.17
2019-03-23T01:12:14.754Z,26.70
2019-03-23T01:14:44.667Z,26.17
2019-03-23T01:17:14.546Z,24.18
2019-03-23T01:19:44.491Z,25.48
2019-03-23T01:22:14.394Z,24.15
2019-03-23T01:24:44.323Z,25.25
2019-03-23T01:27:14.194Z,27.30
2019-03-23T01:29:44.091Z,25.08
2019-03-23T01:32:14.039Z,26.02
2019-03-23T01:34:43.985Z,26.95
2019-03-23T01:37:13.882Z,26.12
2019-03-23T01:39:43.804Z,29.00
2019-03-23T01:42:13.731Z,27.17
2019-03-23T01:44:43.640Z,27.02
2019-03-23T01:47:14.571Z,25.25
2019-03-23T01:49:44.520Z,26.75
2019-03-23T01:52:14.453Z,27.58
2019-03-23T01:54:44.325Z,27.52
2019-03-23T01:57:14.264Z,28.38
2019-03-23T01:59:44.168Z,25.12
2019-03-23T02:02:14.067Z,27.22
2019-03-23T02:04:43.959Z,26.87
2019-03-23T02:07:14.331Z,26.97
2019-03-23T02:09:44.280Z,25.02
2019-03-23T02:12:14.235Z,25.25
2019-03-23T02:14:44.143Z,26.73
2019-03-23T02:17:14.073Z,27.70
2019-03-23T02:19:43.992Z,28.67
2019-03-23T02:22:13.922Z,29.82
2019-03-23T02:24:43.806Z,27.07
2019-03-23T02:27:13.700Z,24.70
2019-03-23T02:29:43.589Z,24.92
2019-03-23T02:32:13.478Z,26.07
2019-03-23T02:34:43.406Z,26.75
2019-03-23T02:37:26.852Z,24.95
2019-03-23T02:39:44.854Z,27.02
2019-03-23T02:42:14.725Z,24.67
2019-03-23T02:44:44.657Z,25.80
2019-03-23T02:47:14.577Z,25.48
2019-03-23T02:49:44.501Z,23.30
2019-03-23T02:52:14.861Z,27.45
2019-03-23T02:54:44.751Z,26.55
2019-03-23T02:57:14.719Z,25.95
2019-03-23T02:59:44.521Z,26.82
2019-03-23T03:02:14.512Z,29.15
2019-03-23T03:04:45.365Z,29.45
2019-03-23T03:07:15.289Z,25.90
2019-03-23T03:09:45.190Z,28.20
2019-03-23T03:12:15.129Z,29.20
2019-03-23T03:14:45.001Z,27.00
2019-03-23T03:17:14.923Z,29.35
2019-03-23T03:19:44.828Z,28.10
2019-03-23T03:22:14.837Z,26.87
2019-03-23T03:24:44.712Z,27.00
2019-03-23T03:27:14.630Z,27.87
2019-03-23T03:29:44.541Z,24.18
2019-03-23T03:32:14.433Z,28.12
2019-03-23T03:34:44.332Z,28.20
2019-03-23T03:37:14.228Z,27.80
2019-03-23T03:39:44.143Z,23.83
2019-03-23T03:42:14.100Z,25.37
2019-03-23T03:44:44.036Z,25.85
2019-03-23T03:47:13.931Z,24.82
2019-03-23T03:49:43.866Z,27.65
2019-03-23T03:52:13.740Z,28.12
2019-03-23T03:54:43.677Z,28.45
2019-03-23T03:57:13.596Z,27.80
2019-03-23T03:59:43.482Z,28.00
2019-03-23T04:02:13.390Z,26.97
2019-03-23T04:04:43.275Z,25.68
2019-03-23T04:07:13.229Z,26.17
2019-03-23T04:09:43.100Z,26.52
2019-03-23T04:12:13.991Z,26.40
2019-03-23T04:14:43.903Z,26.17
2019-03-23T04:17:13.799Z,27.85
2019-03-23T04:19:43.686Z,26.52
2019-03-23T04:22:13.599Z,27.55
2019-03-23T04:24:43.480Z,27.10
2019-03-23T04:27:13.381Z,26.87
2019-03-23T04:29:43.260Z,27.98
2019-03-23T04:32:13.195Z,24.72
2019-03-23T04:34:43.081Z,26.00
2019-03-23T04:37:13.033Z,26.42
2019-03-23T04:39:42.920Z,26.62
2019-03-23T04:42:12.876Z,26.55
2019-03-23T04:44:42.768Z,26.55
2019-03-23T04:47:12.670Z,25.72
2019-03-23T04:49:42.594Z,24.45
2019-03-23T04:52:12.504Z,27.35
2019-03-23T04:54:42.498Z,25.72
2019-03-23T04:57:12.378Z,23.95
2019-03-23T04:59:42.290Z,24.47
2019-03-23T05:02:12.198Z,27.75
2019-03-23T05:04:42.134Z,27.45
2019-03-23T05:07:12.003Z,26.07
2019-03-23T05:09:41.939Z,26.05
2019-03-23T05:12:11.813Z,24.05
2019-03-23T05:14:41.736Z,25.62
2019-03-23T05:17:11.607Z,26.62
2019-03-23T05:19:41.530Z,23.02
2019-03-23T05:22:11.425Z,25.70
2019-03-23T05:24:41.416Z,26.17
2019-03-23T05:27:11.772Z,26.93
2019-03-23T05:29:41.708Z,26.50
2019-03-23T05:32:11.601Z,25.95
2019-03-23T05:34:41.494Z,25.15
2019-03-23T05:37:11.412Z,25.57
2019-03-23T05:39:41.292Z,25.45
2019-03-23T05:42:11.181Z,25.32
2019-03-23T05:44:41.094Z,25.88
2019-03-23T05:47:11.046Z,26.15
2019-03-23T05:49:40.968Z,24.87
2019-03-23T05:52:10.863Z,24.67
2019-03-23T05:54:40.831Z,25.55
2019-03-23T05:57:10.729Z,25.52
2019-03-23T05:59:40.632Z,26.50
2019-03-23T06:02:10.584Z,26.93
2019-03-23T06:04:40.455Z,23.40
2019-03-23T06:07:11.246Z,24.60
2019-03-23T06:09:41.163Z,24.85
2019-03-23T06:12:11.119Z,24.12
2019-03-23T06:14:41.060Z,24.00
2019-03-23T06:17:10.929Z,24.15
2019-03-23T06:19:40.856Z,28.05
2019-03-23T06:22:10.737Z,24.27
2019-03-23T06:24:40.688Z,26.55
2019-03-23T06:27:10.792Z,29.00
2019-03-23T06:29:40.803Z,27.30
2019-03-23T06:32:10.717Z,24.77
2019-03-23T06:34:40.672Z,27.82
2019-03-23T06:37:10.562Z,28.83
2019-03-23T06:39:40.475Z,31.23
2019-03-23T06:42:11.319Z,31.82
2019-03-23T06:44:41.230Z,32.30
2019-03-23T06:47:11.116Z,32.80
2019-03-23T06:49:41.096Z,34.15
2019-03-23T06:52:10.988Z,27.60
2019-03-23T06:54:40.942Z,29.63
2019-03-23T06:57:10.813Z,27.77
2019-03-23T06:59:40.739Z,28.52
2019-03-23T07:02:10.618Z,29.25
2019-03-23T07:04:40.510Z,28.47
2019-03-23T07:07:10.430Z,25.52
2019-03-23T07:09:40.353Z,30.25
2019-03-23T07:12:10.391Z,24.95
2019-03-23T07:14:40.311Z,23.35
2019-03-23T07:17:10.268Z,21.90
2019-03-23T07:19:40.230Z,22.58
2019-03-23T07:22:10.323Z,20.37
2019-03-23T07:24:41.259Z,19.65
2019-03-23T07:27:12.279Z,20.32
2019-03-23T07:29:42.211Z,18.20
2019-03-23T07:32:12.169Z,18.15
2019-03-23T07:34:42.076Z,18.30
2019-03-23T07:37:12.021Z,17.95
2019-03-23T07:39:41.938Z,18.25
2019-03-23T07:42:11.870Z,16.12
2019-03-23T07:44:41.838Z,16.20
2019-03-23T07:47:11.785Z,15.93
2019-03-23T07:49:41.762Z,16.05
2019-03-23T07:52:11.800Z,15.13
2019-03-23T07:54:41.747Z,15.43
2019-03-23T07:57:11.742Z,14.80
2019-03-23T07:59:41.645Z,13.65
2019-03-23T08:02:11.683Z,14.38
2019-03-23T08:04:41.699Z,12.43
2019-03-23T08:07:11.700Z,13.13
2019-03-23T08:09:41.547Z,12.65
2019-03-23T08:12:11.643Z,12.85
2019-03-23T08:14:41.534Z,11.33
2019-03-23T08:17:11.455Z,11.75
2019-03-23T08:19:41.339Z,11.93
2019-03-23T08:22:11.363Z,11.28
2019-03-23T08:24:41.256Z,10.80
2019-03-23T08:27:11.193Z,11.12
2019-03-23T08:29:41.110Z,10.32
2019-03-23T08:32:11.988Z,10.20
2019-03-23T08:34:41.855Z,9.75
2019-03-23T08:37:11.736Z,10.48
2019-03-23T08:39:48.365Z,10.30
2019-03-23T08:42:13.225Z,11.30
2019-03-23T08:44:43.170Z,11.85
2019-03-23T08:47:14.116Z,11.05
2019-03-23T08:49:44.080Z,9.65
2019-03-23T08:52:14.037Z,9.38
2019-03-23T08:54:43.921Z,9.05
2019-03-23T08:57:13.922Z,9.48
2019-03-23T08:59:43.827Z,8.40
2019-03-23T09:02:13.792Z,8.53
2019-03-23T09:04:43.722Z,9.75
2019-03-23T09:07:13.726Z,8.43
2019-03-23T09:09:43.628Z,8.40
2019-03-23T09:12:13.531Z,7.97
2019-03-23T09:14:43.463Z,8.13
2019-03-23T09:17:13.340Z,8.98
2019-03-23T09:19:43.289Z,9.20
2019-03-23T09:22:13.195Z,7.87
2019-03-23T09:24:43.124Z,9.55
2019-03-23T09:27:13.002Z,8.35
2019-03-23T09:29:43.227Z,7.50
2019-03-23T09:32:13.221Z,7.62
2019-03-23T09:34:43.157Z,7.35
2019-03-23T09:37:13.027Z,7.20
2019-03-23T09:39:42.918Z,6.25
2019-03-23T09:42:13.304Z,6.58
2019-03-23T09:44:43.170Z,6.42
2019-03-23T09:47:13.101Z,5.75
2019-03-23T09:49:42.985Z,5.97
2019-03-23T09:52:12.906Z,5.60
2019-03-23T09:54:42.797Z,5.75
2019-03-23T09:57:13.799Z,6.20
2019-03-23T09:59:43.933Z,6.05
2019-03-23T10:02:13.860Z,5.83
2019-03-23T10:04:43.745Z,5.00
2019-03-23T10:07:13.768Z,5.55
2019-03-23T10:09:44.628Z,5.95
2019-03-23T10:12:14.555Z,5.25
2019-03-23T10:14:44.465Z,5.25
2019-03-23T10:17:14.301Z,4.92
2019-03-23T10:19:44.251Z,5.42
2019-03-23T10:22:14.209Z,5.17
2019-03-23T10:24:44.191Z,5.40
2019-03-23T10:27:14.108Z,5.78
2019-03-23T10:29:44.083Z,5.10
2019-03-23T10:32:13.977Z,5.35
2019-03-23T10:34:44.008Z,4.78
2019-03-23T10:37:13.953Z,5.55
2019-03-23T10:39:43.884Z,4.80
2019-03-23T10:42:16.143Z,4.58
2019-03-23T10:44:45.447Z,4.85
2019-03-23T10:47:15.376Z,5.90
2019-03-23T10:49:45.326Z,5.20
2019-03-23T10:52:15.222Z,5.00
2019-03-23T10:54:45.177Z,5.00
2019-03-23T10:57:15.049Z,4.97
2019-03-23T10:59:45.012Z,4.80
2019-03-23T11:02:14.889Z,6.03
2019-03-23T11:04:44.842Z,6.00
2019-03-23T11:07:15.502Z,5.47
2019-03-23T11:09:45.370Z,6.72
2019-03-23T11:12:15.371Z,5.10
2019-03-23T11:14:46.269Z,5.87
2019-03-23T11:17:16.213Z,6.20
2019-03-23T11:19:46.920Z,5.87
2019-03-23T11:22:16.786Z,5.83
2019-03-23T11:24:46.728Z,6.03
2019-03-23T11:27:16.625Z,6.55
2019-03-23T11:29:46.570Z,6.47
2019-03-23T11:32:16.519Z,7.15
2019-03-23T11:34:46.403Z,6.10
2019-03-23T11:37:16.872Z,6.42
2019-03-23T11:39:46.830Z,6.20
2019-03-23T11:42:16.791Z,6.42
2019-03-23T11:44:46.751Z,6.70
2019-03-23T11:47:16.680Z,6.42
2019-03-23T11:49:46.574Z,6.42
2019-03-23T11:52:16.866Z,6.58
2019-03-23T11:54:46.823Z,6.75
2019-03-23T11:57:17.002Z,7.92
2019-03-23T11:59:47.141Z,8.15
2019-03-23T12:02:17.081Z,7.10
2019-03-23T12:04:47.157Z,7.37
2019-03-23T12:07:17.147Z,7.33
2019-03-23T12:09:47.045Z,7.22
2019-03-23T12:12:16.953Z,7.65
2019-03-23T12:14:46.857Z,6.87
2019-03-23T12:17:16.816Z,6.67
2019-03-23T12:19:46.710Z,9.53
2019-03-23T12:22:16.608Z,9.85
2019-03-23T12:24:46.540Z,8.35
2019-03-23T12:27:16.408Z,7.97
2019-03-23T12:29:47.337Z,7.35
2019-03-23T12:32:17.241Z,7.80
2019-03-23T12:34:47.350Z,9.83
2019-03-23T12:37:17.278Z,9.20
2019-03-23T12:39:47.215Z,9.60
2019-03-23T12:42:17.108Z,9.15
2019-03-23T12:44:47.018Z,9.55
2019-03-23T12:47:16.923Z,9.98
2019-03-23T12:49:47.026Z,10.85
2019-03-23T12:52:16.963Z,10.23
2019-03-23T12:54:46.885Z,10.53
2019-03-23T12:57:16.815Z,9.85
2019-03-23T12:59:46.717Z,9.53
2019-03-23T13:02:16.629Z,10.72
2019-03-23T13:04:46.623Z,9.93
2019-03-23T13:07:16.557Z,9.38
2019-03-23T13:09:46.449Z,9.03
2019-03-23T13:12:16.358Z,9.08
2019-03-23T13:14:46.346Z,9.63
2019-03-23T13:17:16.272Z,10.23
2019-03-23T13:19:46.211Z,9.75
2019-03-23T13:22:16.153Z,8.43
2019-03-23T13:24:46.103Z,9.00
2019-03-23T13:27:16.032Z,7.50
2019-03-23T13:29:45.911Z,7.80
2019-03-23T13:32:15.842Z,7.85
2019-03-23T13:34:45.737Z,9.70
2019-03-23T13:37:15.657Z,9.70
2019-03-23T13:39:45.571Z,9.13
2019-03-23T13:42:15.480Z,9.03
2019-03-23T13:44:45.434Z,8.88
2019-03-23T13:47:15.307Z,9.48
2019-03-23T13:49:45.252Z,8.88
2019-03-23T13:52:15.154Z,10.28
2019-03-23T13:54:45.115Z,10.23
2019-03-23T13:57:15.003Z,11.38
2019-03-23T13:59:44.983Z,10.60
2019-03-23T14:02:15.714Z,9.68
2019-03-23T14:04:45.656Z,9.78
2019-03-23T14:07:15.566Z,9.98
2019-03-23T14:09:45.443Z,9.60
2019-03-23T14:12:15.331Z,9.88
2019-03-23T14:14:45.298Z,9.85
2019-03-23T14:17:15.182Z,10.28
2019-03-23T14:19:45.134Z,9.63
2019-03-23T14:22:15.064Z,10.00
2019-03-23T14:24:45.009Z,10.03
2019-03-23T14:27:14.939Z,9.35
2019-03-23T14:29:45.582Z,9.70
2019-03-23T14:32:15.485Z,9.95
2019-03-23T14:34:45.418Z,9.95
2019-03-23T14:37:15.322Z,11.80
2019-03-23T14:39:45.258Z,10.72
2019-03-23T14:42:16.287Z,10.30
2019-03-23T14:44:46.534Z,9.43
2019-03-23T14:47:16.526Z,9.18
2019-03-23T14:49:46.604Z,9.23
2019-03-23T14:52:16.537Z,10.28
2019-03-23T14:54:46.438Z,9.53
2019-03-23T14:57:16.321Z,9.43
2019-03-23T14:59:46.282Z,9.70
2019-03-23T15:02:16.195Z,9.65
2019-03-23T15:04:46.293Z,9.80
2019-03-23T15:07:16.247Z,10.15
2019-03-23T15:09:46.200Z,7.97
2019-03-23T15:12:16.116Z,8.35
2019-03-23T15:14:47.040Z,9.08
2019-03-23T15:17:16.939Z,10.48
2019-03-23T15:19:47.287Z,11.60
2019-03-23T15:22:17.263Z,10.32
2019-03-23T15:24:47.237Z,9.65
2019-03-23T15:27:17.136Z,10.63
2019-03-23T15:29:47.085Z,9.60
2019-03-23T15:32:17.022Z,12.20
2019-03-23T15:34:46.945Z,13.75
2019-03-23T15:37:16.819Z,13.13
2019-03-23T15:39:46.741Z,22.10
2019-03-23T15:42:24.505Z,31.60
2019-03-23T15:44:48.184Z,21.42
2019-03-23T15:47:18.086Z,63.98
2019-03-23T15:49:47.993Z,102.87
2019-03-23T15:52:17.929Z,46.92
2019-03-23T15:54:47.890Z,30.62
2019-03-23T15:57:17.764Z,15.72
2019-03-23T15:59:47.756Z,13.28
2019-03-23T16:02:17.649Z,11.08
2019-03-23T16:04:47.569Z,10.78
2019-03-23T16:07:17.501Z,10.90
2019-03-23T16:09:47.383Z,11.00
2019-03-23T16:12:17.331Z,11.20
2019-03-23T16:14:47.231Z,11.53
2019-03-23T16:17:17.150Z,12.30
2019-03-23T16:19:47.035Z,11.25
2019-03-23T16:22:16.956Z,33.95
2019-03-23T16:24:47.055Z,13.72
2019-03-23T16:27:18.009Z,12.93
2019-03-23T16:29:47.976Z,14.00
2019-03-23T16:32:17.947Z,13.20
2019-03-23T16:34:48.264Z,15.45
2019-03-23T16:37:18.286Z,14.80
2019-03-23T16:39:48.343Z,15.80
2019-03-23T16:42:18.284Z,18.77
2019-03-23T16:44:48.161Z,19.30
2019-03-23T16:47:18.140Z,19.23
2019-03-23T16:49:48.094Z,20.23
2019-03-23T16:52:18.028Z,20.97
2019-03-23T16:54:47.948Z,21.62
2019-03-23T16:57:17.906Z,25.43
2019-03-23T16:59:47.875Z,28.25
2019-03-23T17:02:17.855Z,27.45
2019-03-23T17:04:47.971Z,30.77
2019-03-23T17:07:18.048Z,28.65
2019-03-23T17:09:47.919Z,33.38
2019-03-23T17:12:17.899Z,37.53
2019-03-23T17:14:47.860Z,36.90
2019-03-23T17:17:17.821Z,42.33
2019-03-23T17:19:47.734Z,33.92
2019-03-23T17:22:17.690Z,33.53
2019-03-23T17:24:47.624Z,33.65
2019-03-23T17:27:17.554Z,32.75
2019-03-23T17:29:47.595Z,32.90
2019-03-23T17:32:17.561Z,34.20
2019-03-23T17:34:47.656Z,36.45
2019-03-23T17:37:17.549Z,35.52
2019-03-23T17:39:48.569Z,32.85
2019-03-23T17:42:18.566Z,36.45
2019-03-23T17:44:48.514Z,35.15
2019-03-23T17:47:18.456Z,32.85
2019-03-23T17:49:48.461Z,31.75
2019-03-23T17:52:18.376Z,31.60
2019-03-23T17:54:48.306Z,32.53
2019-03-23T17:57:18.255Z,32.35
2019-03-23T17:59:48.333Z,31.37
2019-03-23T18:02:18.197Z,32.45
2019-03-23T18:04:48.157Z,31.73
2019-03-23T18:07:18.148Z,28.12
2019-03-23T18:09:49.101Z,28.15
2019-03-23T18:12:19.046Z,28.42
2019-03-23T18:14:49.028Z,28.60
2019-03-23T18:17:18.924Z,26.68
2019-03-23T18:19:48.937Z,27.05
2019-03-23T18:22:18.823Z,26.07
2019-03-23T18:24:48.797Z,34.10
2019-03-23T18:27:18.716Z,25.37
2019-03-23T18:29:48.621Z,23.00
2019-03-23T18:32:18.561Z,23.90
2019-03-23T18:34:50.061Z,23.52
2019-03-23T18:37:20.068Z,24.37
2019-03-23T18:39:49.983Z,23.42
2019-03-23T18:42:19.939Z,20.95
2019-03-23T18:44:49.923Z,22.32
2019-03-23T18:47:19.842Z,22.73
2019-03-23T18:49:49.908Z,22.27
2019-03-23T18:52:19.803Z,22.70
2019-03-23T18:54:49.710Z,21.85
2019-03-23T18:57:19.645Z,22.67
2019-03-23T18:59:49.651Z,21.57
2019-03-23T19:02:19.838Z,21.62
2019-03-23T19:04:56.386Z,21.55
2019-03-23T19:07:31.077Z,20.97
2019-03-23T19:10:01.046Z,20.25
2019-03-23T19:12:31.031Z,20.45
2019-03-23T19:15:00.983Z,20.55
2019-03-23T19:17:31.001Z,20.12
2019-03-23T19:20:01.046Z,20.80
2019-03-23T19:22:31.020Z,20.68
2019-03-23T19:25:01.006Z,19.82
2019-03-23T19:27:30.945Z,20.32
2019-03-23T19:30:00.904Z,22.10
2019-03-23T19:32:30.801Z,22.62
2019-03-23T19:35:00.846Z,23.25
2019-03-23T19:37:30.860Z,22.22
2019-03-23T19:40:00.855Z,20.85
2019-03-23T19:42:30.800Z,19.90
2019-03-23T19:45:00.764Z,22.15
2019-03-23T19:47:30.708Z,21.37
2019-03-23T19:50:00.691Z,21.02
2019-03-23T19:52:33.514Z,21.42
2019-03-23T19:55:04.265Z,20.75
2019-03-23T19:57:34.319Z,20.55
2019-03-23T20:00:04.664Z,21.00
2019-03-23T20:02:34.724Z,20.17
2019-03-23T20:05:04.689Z,21.15
2019-03-23T20:07:34.745Z,20.55
2019-03-23T20:10:05.388Z,21.85
2019-03-23T20:12:35.423Z,20.92
2019-03-23T20:15:05.459Z,22.27
2019-03-23T20:17:35.403Z,22.20
2019-03-23T20:20:05.719Z,22.60
2019-03-23T20:22:35.650Z,23.00
2019-03-23T20:25:05.646Z,21.70
2019-03-23T20:27:36.669Z,22.75
2019-03-23T20:30:08.233Z,22.62
2019-03-23T20:32:38.230Z,23.85
2019-03-23T20:35:08.402Z,23.15
2019-03-23T20:37:38.410Z,23.98
2019-03-23T20:40:09.800Z,23.85
2019-03-23T20:42:39.725Z,24.20
2019-03-23T20:45:10.582Z,25.95
2019-03-23T20:47:40.977Z,23.00
2019-03-23T20:50:11.153Z,24.37
2019-03-23T20:52:41.226Z,24.30
2019-03-23T20:55:14.493Z,24.37
2019-03-23T20:57:44.393Z,24.55
2019-03-23T21:00:14.442Z,23.90
2019-03-23T21:02:45.223Z,24.80
2019-03-23T21:05:15.158Z,24.57
2019-03-23T21:07:45.066Z,24.45
2019-03-23T21:10:15.016Z,26.70
2019-03-23T21:12:44.944Z,27.13
2019-03-23T21:15:14.896Z,27.10
2019-03-23T21:17:51.106Z,26.70
2019-03-23T21:20:16.528Z,26.17
2019-03-23T21:22:46.433Z,25.02
2019-03-23T21:25:16.463Z,24.15
2019-03-23T21:27:46.639Z,25.08
2019-03-23T21:30:18.194Z,25.02
2019-03-23T21:32:48.107Z,23.75
2019-03-23T21:35:18.028Z,25.97
2019-03-23T21:37:48.901Z,24.72
2019-03-23T21:40:18.819Z,24.25
2019-03-23T21:42:48.751Z,26.02
2019-03-23T21:45:18.674Z,25.70
2019-03-23T21:47:48.710Z,25.20
2019-03-23T21:50:18.635Z,28.12
2019-03-23T21:52:48.643Z,27.73
2019-03-23T21:55:18.585Z,25.43
2019-03-23T21:57:49.511Z,24.80
2019-03-23T22:00:29.914Z,24.47
2019-03-23T22:02:59.913Z,24.27
2019-03-23T22:05:29.873Z,22.58
2019-03-23T22:07:59.825Z,23.92
2019-03-23T22:10:29.773Z,23.30
2019-03-23T22:12:59.699Z,22.75
2019-03-23T22:15:32.648Z,23.32
2019-03-23T22:18:02.603Z,23.25
2019-03-23T22:20:32.813Z,24.27
2019-03-23T22:23:02.751Z,23.40
2019-03-23T22:25:32.720Z,24.82
2019-03-23T22:28:02.603Z,25.43
2019-03-23T22:30:32.544Z,25.23
2019-03-23T22:33:02.566Z,24.02
2019-03-23T22:35:32.530Z,24.55
2019-03-23T22:38:02.417Z,25.23
2019-03-23T22:40:32.365Z,24.92
2019-03-23T22:43:02.284Z,23.60
2019-03-23T22:45:32.286Z,25.77
2019-03-23T22:48:02.183Z,24.80
2019-03-23T22:50:32.158Z,24.90
2019-03-23T22:53:02.085Z,23.85
2019-03-23T22:55:31.979Z,24.95
2019-03-23T22:58:01.930Z,24.02
2019-03-23T23:00:40.976Z,25.02
2019-03-23T23:03:11.709Z,24.37
2019-03-23T23:05:42.576Z,23.83
2019-03-23T23:08:12.479Z,24.18
2019-03-23T23:10:42.385Z,22.90
2019-03-23T23:13:12.358Z,24.40
2019-03-23T23:15:42.254Z,23.90
2019-03-23T23:18:12.187Z,24.27
2019-03-23T23:20:42.153Z,22.85
2019-03-23T23:23:12.107Z,23.73
2019-03-23T23:25:42.036Z,23.27
2019-03-23T23:28:12.074Z,23.47
2019-03-23T23:30:41.959Z,23.27
2019-03-23T23:33:11.958Z,24.18
2019-03-23T23:35:41.849Z,24.47
2019-03-23T23:38:11.788Z,23.95
2019-03-23T23:40:41.686Z,23.73
2019-03-23T23:43:11.646Z,23.87
2019-03-23T23:45:41.730Z,25.95
2019-03-23T23:48:11.607Z,23.60
2019-03-23T23:50:41.616Z,24.10
2019-03-23T23:53:11.517Z,24.15
2019-03-23T23:55:41.407Z,23.00
2019-03-23T23:58:11.321Z,23.38
